YMUL weather

Murray Field
Western Australia, Australia

Public forecast

Using degrees Celsius for public forecast. Weather courtesy of forecast.io.

Closest aviation weather report (METAR) to Murray Field

Closest report is Perth Jandakot Airport, 24.7 nm (45.8 km) N. Retrieved 2019/12/14 20:30 UTC (21 minutes ago):

YPJT 142030Z AUTO 11010KT 9999 // NCD 25/05 Q1006 RF000/0000

Closest aviation forecast (TAF) to Murray Field

Forecast is more than 6 hours old.

Closest forecast is Perth Jandakot Airport, 24.7 nm (45.8 km) N. Retrieved 2019/12/14 12:00 UTC (9 hours ago):

TAF YPJT 141004Z 1412/1506 18010KT CAVOK FM141700 10010KT CAVOK FM150100 02010KT CAVOK FM150400 24014KT CAVOK